Toluca, Mexico

5:34 PM CDT on August 30, 2015 (GMT -0500)
Lic Benito Juarez International | | Change Station
CLOSE
Current Station
Airport
Location: Mexico City Airport,
Elevation: 7343 ft
Nearby Weather Stations

Elev 7343 ft 19.43 °N, 99.10 °W | Updated 16 minutes ago

Overcast
Overcast
64 °F
Feels Like 64 °F
N
17
Wind Variable Wind from NE
Gusts 29 mph

Today
High -- | Low -- °F
--% Chance of Precip.
Yesterday
High -- | Low -- °F
Precip. -- in
7:23 AM 7:55 PM
Full, 98% visible
Pressure 30.28 in
Visibility 10.0 miles
Clouds Mostly Cloudy 1500 ft
Overcast 7000 ft
Dew Point 50 °F
Humidity 59%
Rainfall 0.00 in
Snow Depth Not available.
UV 1 out of 12
Pollen Not available.
Air Quality Not available.
Flu Activity Not available.
SPECI MMMX 302218Z 05015G25KT 10SM BKN015CB OVC070 18/10 A3028 TEMPO 3SM TSRA RMK 8/96/ HZT DSNT PCPN 1ST AND 4TH QUAD DSNT LTGIC E-W
Pressure 30.28 in
Visibility 10.0 miles
Clouds Mostly Cloudy 1500 ft
Overcast 7000 ft
Dew Point 50 °F
Humidity 59%
Rainfall 0.00 in
Snow Depth Not available.
UV 1 out of 12
Pollen Not available.
Air Quality Not available.
Flu Activity Not available.
SPECI MMMX 302218Z 05015G25KT 10SM BKN015CB OVC070 18/10 A3028 TEMPO 3SM TSRA RMK 8/96/ HZT DSNT PCPN 1ST AND 4TH QUAD DSNT LTGIC E-W

10-Day Weather Forecast

×

Almanac

Astronomy

Aug. 30, 2015 Rise Set
Actual Time
Civil Twilight
Nautical Twilight
Astronomical Twilight
Moon
Length of Visible Light
Length of Day
Tomorrow will be .
, % of the Moon is Illuminated

Today's Extremes

Country Highs Country Lows

Community

WunderPhotos

Upload Photos

1,851,074 photos uploaded!

WunderBlogs® & News

Nearby

Air Quality

  Air Quality AQ Index Pollutant
Not available.

Snow Depth

Station Depth Elevation

Earthquake Activity

City Distance Mag. Time & Date
Minimum magnitude displayed is 2.5.

Coastal Water Temperatures

Place Temperature

Stations

Nearby Weather Stations

Station Location Temp. Windchill Dew Point Humidity Wind Precip. Elev Updated Type